createdAt,value
2018-07-23T00:00:30.518Z,70.60
2018-07-23T00:02:57.730Z,70.90
2018-07-23T00:05:25.665Z,70.60
2018-07-23T00:07:52.851Z,70.50
2018-07-23T00:10:20.100Z,70.50
2018-07-23T00:12:47.318Z,70.30
2018-07-23T00:15:14.543Z,70.10
2018-07-23T00:17:41.815Z,69.90
2018-07-23T00:20:09.074Z,69.80
2018-07-23T00:22:36.274Z,69.90
2018-07-23T00:25:03.560Z,69.80
2018-07-23T00:27:30.799Z,69.80
2018-07-23T00:29:58.026Z,69.70
2018-07-23T00:32:25.272Z,69.40
2018-07-23T00:34:52.467Z,70.00
2018-07-23T00:37:19.679Z,70.00
2018-07-23T00:39:46.871Z,69.70
2018-07-23T00:42:14.064Z,70.30
2018-07-23T00:44:41.356Z,69.80
2018-07-23T00:47:08.737Z,69.70
2018-07-23T00:49:36.368Z,69.90
2018-07-23T00:52:03.601Z,69.90
2018-07-23T00:54:30.826Z,69.80
2018-07-23T00:56:58.108Z,69.50
2018-07-23T00:59:25.327Z,70.20
2018-07-23T01:01:52.492Z,70.30
2018-07-23T01:04:19.748Z,70.50
2018-07-23T01:06:46.982Z,71.10
2018-07-23T01:09:14.188Z,70.10
2018-07-23T01:11:41.340Z,70.00
2018-07-23T01:14:08.535Z,70.20
2018-07-23T01:16:35.711Z,70.10
2018-07-23T01:19:02.973Z,70.10
2018-07-23T01:21:30.215Z,70.20
2018-07-23T01:23:57.485Z,69.90
2018-07-23T01:26:24.740Z,70.10
2018-07-23T01:28:52.856Z,70.00
2018-07-23T01:31:20.033Z,70.10
2018-07-23T01:33:47.196Z,70.20
2018-07-23T01:36:14.432Z,70.50
2018-07-23T01:38:41.634Z,70.10
2018-07-23T01:41:08.864Z,70.00
2018-07-23T01:43:36.045Z,70.30
2018-07-23T01:46:10.036Z,70.20
2018-07-23T01:48:37.560Z,70.20
2018-07-23T01:51:04.917Z,70.30
2018-07-23T01:53:32.113Z,70.00
2018-07-23T01:55:59.340Z,70.60
2018-07-23T01:58:26.495Z,70.00
2018-07-23T02:00:53.740Z,70.60
2018-07-23T02:03:20.935Z,69.80
2018-07-23T02:05:48.184Z,70.00
2018-07-23T02:08:15.445Z,69.80
2018-07-23T02:10:42.625Z,70.00
2018-07-23T02:13:09.828Z,70.00
2018-07-23T02:15:37.237Z,70.00
2018-07-23T02:18:04.881Z,69.90
2018-07-23T02:20:32.257Z,70.10
2018-07-23T02:25:26.754Z,70.00
2018-07-23T02:27:53.954Z,69.90
2018-07-23T02:30:21.156Z,70.40
2018-07-23T02:32:48.389Z,70.00
2018-07-23T02:35:15.634Z,70.00
2018-07-23T02:37:42.905Z,70.10
2018-07-23T02:40:10.158Z,70.10
2018-07-23T02:42:37.424Z,70.00
2018-07-23T02:45:04.750Z,69.80
2018-07-23T02:47:31.936Z,70.20
2018-07-23T02:49:59.109Z,70.50
2018-07-23T02:52:26.342Z,70.50
2018-07-23T02:54:53.561Z,70.20
2018-07-23T02:57:20.815Z,70.10
2018-07-23T02:59:48.052Z,70.10
2018-07-23T03:02:15.276Z,70.00
2018-07-23T03:04:42.460Z,70.00
2018-07-23T03:07:09.685Z,70.10
2018-07-23T03:09:36.906Z,70.20
2018-07-23T03:12:04.172Z,70.10
2018-07-23T03:14:31.349Z,70.50
2018-07-23T03:16:58.620Z,69.80
2018-07-23T03:19:25.797Z,70.00
2018-07-23T03:21:53.084Z,70.00
2018-07-23T03:24:20.168Z,70.30
2018-07-23T03:26:47.340Z,70.10
2018-07-23T03:29:14.550Z,70.20
2018-07-23T03:31:41.772Z,69.90
2018-07-23T03:34:08.976Z,69.80
2018-07-23T03:36:36.169Z,69.80
2018-07-23T03:39:06.118Z,70.20
2018-07-23T03:41:33.279Z,70.10
2018-07-23T03:44:00.562Z,69.90
2018-07-23T03:46:27.716Z,70.00
2018-07-23T03:48:55.003Z,70.00
2018-07-23T03:51:22.195Z,70.40
2018-07-23T03:53:49.429Z,70.10
2018-07-23T03:56:16.644Z,70.10
2018-07-23T03:58:43.916Z,70.20
2018-07-23T04:01:11.174Z,70.20
2018-07-23T04:03:38.439Z,70.30
2018-07-23T04:06:05.602Z,70.30
2018-07-23T04:08:32.832Z,70.20
2018-07-23T04:11:00.090Z,70.00
2018-07-23T04:13:27.364Z,70.00
2018-07-23T04:15:54.592Z,70.10
2018-07-23T04:18:21.833Z,70.10
2018-07-23T04:20:49.089Z,70.10
2018-07-23T04:23:16.316Z,70.40
2018-07-23T04:25:44.522Z,70.30
2018-07-23T04:28:11.792Z,70.30
2018-07-23T04:30:39.027Z,70.50
2018-07-23T04:33:06.257Z,70.10
2018-07-23T04:35:33.463Z,70.20
2018-07-23T04:38:00.757Z,70.50
2018-07-23T04:40:28.018Z,70.60
2018-07-23T04:42:55.259Z,70.50
2018-07-23T04:45:22.452Z,70.70
2018-07-23T04:47:49.744Z,70.80
2018-07-23T04:52:44.192Z,71.10
2018-07-23T04:55:11.465Z,70.80
2018-07-23T04:57:39.260Z,70.90
2018-07-23T05:00:06.468Z,71.00
2018-07-23T05:02:33.660Z,71.80
2018-07-23T05:05:00.885Z,70.90
2018-07-23T05:07:28.172Z,71.30
2018-07-23T05:12:22.547Z,71.60
2018-07-23T05:14:49.740Z,71.50
2018-07-23T05:17:16.959Z,71.90
2018-07-23T05:19:44.533Z,72.00
2018-07-23T05:22:11.710Z,72.30
2018-07-23T05:24:39.050Z,72.40
2018-07-23T05:27:06.548Z,72.40
2018-07-23T05:29:33.740Z,72.30
2018-07-23T05:32:00.992Z,72.40
2018-07-23T05:34:28.286Z,72.40
2018-07-23T05:36:55.496Z,72.60
2018-07-23T05:39:22.735Z,72.70
2018-07-23T05:41:49.972Z,72.50
2018-07-23T05:44:17.171Z,72.70
2018-07-23T05:49:11.598Z,72.90
2018-07-23T05:51:38.786Z,72.80
2018-07-23T05:54:06.383Z,72.70
2018-07-23T05:56:33.618Z,72.80
2018-07-23T05:59:00.836Z,72.30
2018-07-23T06:01:28.182Z,72.20
2018-07-23T06:03:55.392Z,72.40
2018-07-23T06:06:23.162Z,72.30
2018-07-23T06:08:50.438Z,72.50
2018-07-23T06:11:17.733Z,73.00
2018-07-23T06:13:45.012Z,73.20
2018-07-23T06:16:12.317Z,73.20
2018-07-23T06:18:39.568Z,72.70
2018-07-23T06:21:06.820Z,72.80
2018-07-23T06:23:34.420Z,72.70
2018-07-23T06:26:01.730Z,73.00
2018-07-23T06:28:28.968Z,73.10
2018-07-23T06:30:56.435Z,72.90
2018-07-23T06:33:23.668Z,72.90
2018-07-23T06:35:50.848Z,72.40
2018-07-23T06:38:18.117Z,72.40
2018-07-23T06:40:45.363Z,72.60
2018-07-23T06:43:12.572Z,72.60
2018-07-23T06:45:39.838Z,72.10
2018-07-23T06:48:07.058Z,72.30
2018-07-23T06:50:34.396Z,72.60
2018-07-23T06:53:01.576Z,72.80
2018-07-23T06:55:28.781Z,73.20
2018-07-23T06:57:56.024Z,73.30
2018-07-23T07:00:23.280Z,73.30
2018-07-23T07:02:50.482Z,72.90
2018-07-23T07:05:17.653Z,72.70
2018-07-23T07:07:44.844Z,73.30
2018-07-23T07:10:13.140Z,73.80
2018-07-23T07:12:40.352Z,74.40
2018-07-23T07:15:07.937Z,73.30
2018-07-23T07:17:35.168Z,73.30
2018-07-23T07:20:02.455Z,72.90
2018-07-23T07:22:29.680Z,72.90
2018-07-23T07:24:56.952Z,73.20
2018-07-23T07:27:24.285Z,73.20
2018-07-23T07:29:51.552Z,72.90
2018-07-23T07:32:18.832Z,72.90
2018-07-23T07:34:46.175Z,73.50
2018-07-23T07:37:13.390Z,72.60
2018-07-23T07:39:40.518Z,72.60
2018-07-23T07:42:07.790Z,72.70
2018-07-23T07:44:34.992Z,71.50
2018-07-23T07:47:02.233Z,71.10
2018-07-23T07:49:29.480Z,71.10
2018-07-23T07:51:56.696Z,70.70
2018-07-23T07:54:23.914Z,70.50
2018-07-23T07:56:51.108Z,70.10
2018-07-23T07:59:18.352Z,70.60
2018-07-23T08:01:45.556Z,70.10
2018-07-23T08:04:12.776Z,69.80
2018-07-23T08:06:40.779Z,69.50
2018-07-23T08:09:08.724Z,69.40
2018-07-23T08:14:03.657Z,69.10
2018-07-23T08:16:30.929Z,68.70
2018-07-23T08:18:58.200Z,68.20
2018-07-23T08:21:25.364Z,68.10
2018-07-23T08:23:52.628Z,68.00
2018-07-23T08:26:19.926Z,67.80
2018-07-23T08:28:47.210Z,67.40
2018-07-23T08:31:14.404Z,68.00
2018-07-23T08:33:41.598Z,67.90
2018-07-23T08:36:08.837Z,67.60
2018-07-23T08:38:36.124Z,67.60
2018-07-23T08:41:03.376Z,67.70
2018-07-23T08:43:30.584Z,67.40
2018-07-23T08:45:57.827Z,67.30
2018-07-23T08:48:25.029Z,67.30
2018-07-23T08:50:52.243Z,67.10
2018-07-23T08:53:19.461Z,66.90
2018-07-23T08:55:46.689Z,66.80
2018-07-23T08:58:13.964Z,66.70
2018-07-23T09:00:41.173Z,66.50
2018-07-23T09:03:08.417Z,66.40
2018-07-23T09:05:35.684Z,66.30
2018-07-23T09:08:02.920Z,66.20
2018-07-23T09:10:30.151Z,66.20
2018-07-23T09:12:57.420Z,65.90
2018-07-23T09:15:24.637Z,65.90
2018-07-23T09:17:51.887Z,65.80
2018-07-23T09:20:19.182Z,65.60
2018-07-23T09:22:46.424Z,65.50
2018-07-23T09:25:13.581Z,65.40
2018-07-23T09:27:40.800Z,65.50
2018-07-23T09:30:12.629Z,65.70
2018-07-23T09:32:39.880Z,65.50
2018-07-23T09:35:07.156Z,65.40
2018-07-23T09:37:34.445Z,65.30
2018-07-23T09:40:01.656Z,65.50
2018-07-23T09:42:28.861Z,65.30
2018-07-23T09:44:56.112Z,65.20
2018-07-23T09:47:23.384Z,65.40
2018-07-23T09:49:50.605Z,65.80
2018-07-23T09:52:17.807Z,65.70
2018-07-23T09:54:45.380Z,65.70
2018-07-23T09:57:12.548Z,66.50
2018-07-23T09:59:39.768Z,65.90
2018-07-23T10:02:07.019Z,66.00
2018-07-23T10:04:34.179Z,66.00
2018-07-23T10:07:01.365Z,66.10
2018-07-23T10:09:28.601Z,66.20
2018-07-23T10:11:55.871Z,66.10
2018-07-23T10:14:23.048Z,66.20
2018-07-23T10:16:50.273Z,66.20
2018-07-23T10:19:17.464Z,66.10
2018-07-23T10:21:44.709Z,65.90
2018-07-23T10:24:11.932Z,66.20
2018-07-23T10:26:39.225Z,66.30
2018-07-23T10:29:06.916Z,66.20
2018-07-23T10:31:34.152Z,66.40
2018-07-23T10:34:01.354Z,66.70
2018-07-23T10:36:28.523Z,66.80
2018-07-23T10:38:55.713Z,66.70
2018-07-23T10:41:22.968Z,66.70
2018-07-23T10:43:50.213Z,66.60
2018-07-23T10:46:17.489Z,66.50
2018-07-23T10:48:44.725Z,66.50
2018-07-23T10:51:11.928Z,66.40
2018-07-23T10:53:39.296Z,66.10
2018-07-23T10:56:06.548Z,66.20
2018-07-23T10:58:33.780Z,66.40
2018-07-23T11:01:01.153Z,66.40
2018-07-23T11:03:28.296Z,66.30
2018-07-23T11:05:55.478Z,66.30
2018-07-23T11:08:22.656Z,66.10
2018-07-23T11:10:49.892Z,66.10
2018-07-23T11:13:17.051Z,65.90
2018-07-23T11:15:44.288Z,66.00
2018-07-23T11:18:11.442Z,65.70
2018-07-23T11:20:38.632Z,65.80
2018-07-23T11:23:05.860Z,65.80
2018-07-23T11:25:40.663Z,65.70
2018-07-23T11:28:00.250Z,65.70
2018-07-23T11:30:27.456Z,65.70
2018-07-23T11:32:54.704Z,65.20
2018-07-23T11:35:21.892Z,65.20
2018-07-23T11:37:49.141Z,65.30
2018-07-23T11:40:16.416Z,65.00
2018-07-23T11:42:43.725Z,64.70
2018-07-23T11:45:10.927Z,64.60
2018-07-23T11:47:38.115Z,64.20
2018-07-23T11:50:05.397Z,63.80
2018-07-23T11:52:32.636Z,63.50
2018-07-23T11:54:59.884Z,63.10
2018-07-23T11:57:27.165Z,63.30
2018-07-23T11:59:54.421Z,63.30
2018-07-23T12:02:21.628Z,63.00
2018-07-23T12:04:48.772Z,62.80
2018-07-23T12:07:16.032Z,62.40
2018-07-23T12:09:43.217Z,62.20
2018-07-23T12:12:10.403Z,62.10
2018-07-23T12:14:37.633Z,61.80
2018-07-23T12:17:04.821Z,61.60
2018-07-23T12:19:31.996Z,61.80
2018-07-23T12:22:03.389Z,61.70
2018-07-23T12:24:31.104Z,61.50
2018-07-23T12:26:58.272Z,61.60
2018-07-23T12:29:25.593Z,61.40
2018-07-23T12:31:52.808Z,61.50
2018-07-23T12:34:20.016Z,61.30
2018-07-23T12:36:47.258Z,61.20
2018-07-23T12:39:14.404Z,61.40
2018-07-23T12:41:41.988Z,61.30
2018-07-23T12:44:09.572Z,61.30
2018-07-23T12:46:37.023Z,61.40
2018-07-23T12:49:04.360Z,61.40
2018-07-23T12:51:31.608Z,61.40
2018-07-23T12:53:58.809Z,61.30
2018-07-23T12:56:26.014Z,61.10
2018-07-23T12:58:53.248Z,61.00
2018-07-23T13:01:20.544Z,61.10
2018-07-23T13:03:47.792Z,61.10
2018-07-23T13:06:15.050Z,61.30
2018-07-23T13:08:42.184Z,61.40
2018-07-23T13:11:09.354Z,61.50
2018-07-23T13:13:36.575Z,61.30
2018-07-23T13:16:03.851Z,61.10
2018-07-23T13:18:31.060Z,61.10
2018-07-23T13:20:58.362Z,61.10
2018-07-23T13:23:26.196Z,61.00
2018-07-23T13:25:53.410Z,60.80
2018-07-23T13:28:20.608Z,60.90
2018-07-23T13:33:15.051Z,60.70
2018-07-23T13:35:42.316Z,60.50
2018-07-23T13:38:09.695Z,60.30
2018-07-23T13:40:36.822Z,60.10
2018-07-23T13:43:04.036Z,60.00
2018-07-23T13:45:31.212Z,60.00
2018-07-23T13:47:58.404Z,59.80
2018-07-23T13:50:25.628Z,59.80
2018-07-23T13:52:52.767Z,59.50
2018-07-23T13:55:19.955Z,59.20
2018-07-23T13:57:47.150Z,59.10
2018-07-23T14:00:14.312Z,58.90
2018-07-23T14:02:41.598Z,59.10
2018-07-23T14:05:09.531Z,59.20
2018-07-23T14:07:36.684Z,59.30
2018-07-23T14:10:04.104Z,59.20
2018-07-23T14:12:31.294Z,58.80
2018-07-23T14:14:58.552Z,58.50
2018-07-23T14:17:25.758Z,58.30
2018-07-23T14:19:53.632Z,58.40
2018-07-23T14:22:20.952Z,58.40
2018-07-23T14:24:48.156Z,58.50
2018-07-23T14:27:15.348Z,58.50
2018-07-23T14:29:42.632Z,58.50
2018-07-23T14:32:09.864Z,58.40
2018-07-23T14:34:37.072Z,58.30
2018-07-23T14:37:04.564Z,58.30
2018-07-23T14:39:31.814Z,58.20
2018-07-23T14:41:58.990Z,58.80
2018-07-23T14:44:27.042Z,57.50
2018-07-23T14:46:54.331Z,57.20
2018-07-23T14:49:21.494Z,56.90
2018-07-23T14:51:49.567Z,57.10
2018-07-23T14:54:16.804Z,57.20
2018-07-23T14:56:44.036Z,57.20
2018-07-23T14:59:11.321Z,57.20
2018-07-23T15:01:38.560Z,57.50
2018-07-23T15:04:05.793Z,57.40
2018-07-23T15:06:33.005Z,57.20
2018-07-23T15:09:00.229Z,57.30
2018-07-23T15:11:27.472Z,57.50
2018-07-23T15:13:54.630Z,57.60
2018-07-23T15:16:21.784Z,57.40
2018-07-23T15:18:49.020Z,57.40
2018-07-23T15:21:16.289Z,57.50
2018-07-23T15:23:43.524Z,57.40
2018-07-23T15:26:10.763Z,57.40
2018-07-23T15:28:37.943Z,57.50
2018-07-23T15:31:05.218Z,57.50
2018-07-23T15:33:32.485Z,57.50
2018-07-23T15:35:59.740Z,57.60
2018-07-23T15:38:26.925Z,57.70
2018-07-23T15:40:54.117Z,57.60
2018-07-23T15:43:21.343Z,57.70
2018-07-23T15:45:48.867Z,58.00
2018-07-23T15:48:15.831Z,57.90
2018-07-23T15:50:43.084Z,58.00
2018-07-23T15:53:10.231Z,58.10
2018-07-23T15:55:37.506Z,58.10
2018-07-23T15:58:04.787Z,58.10
2018-07-23T16:00:32.072Z,58.20
2018-07-23T16:02:59.333Z,58.30
2018-07-23T16:05:26.553Z,58.30
2018-07-23T16:07:53.754Z,58.40
2018-07-23T16:10:21.014Z,58.50
2018-07-23T16:12:48.286Z,58.50
2018-07-23T16:15:15.540Z,58.70
2018-07-23T16:17:42.764Z,58.80
2018-07-23T16:20:10.025Z,59.00
2018-07-23T16:22:37.267Z,59.10
2018-07-23T16:25:05.587Z,59.10
2018-07-23T16:27:32.839Z,59.20
2018-07-23T16:30:00.099Z,59.50
2018-07-23T16:32:27.283Z,59.60
2018-07-23T16:34:54.622Z,58.90
2018-07-23T16:37:21.809Z,59.40
2018-07-23T16:39:49.053Z,59.40
2018-07-23T16:42:16.308Z,59.60
2018-07-23T16:44:43.539Z,59.70
2018-07-23T16:47:10.765Z,59.80
2018-07-23T16:49:37.963Z,59.70
2018-07-23T16:52:05.507Z,59.70
2018-07-23T16:54:32.717Z,59.60
2018-07-23T16:56:59.955Z,59.40
2018-07-23T16:59:27.168Z,59.30
2018-07-23T17:01:54.380Z,59.30
2018-07-23T17:04:21.593Z,59.30
2018-07-23T17:06:48.823Z,59.20
2018-07-23T17:09:16.002Z,59.30
2018-07-23T17:11:43.293Z,59.50
2018-07-23T17:14:10.532Z,59.60
2018-07-23T17:16:37.755Z,59.70
2018-07-23T17:19:05.372Z,59.80
2018-07-23T17:21:32.630Z,59.80
2018-07-23T17:23:59.905Z,59.70
2018-07-23T17:26:27.123Z,59.80
2018-07-23T17:28:54.444Z,59.60
2018-07-23T17:31:21.975Z,59.40
2018-07-23T17:33:49.242Z,59.50
2018-07-23T17:36:16.512Z,59.60
2018-07-23T17:38:43.726Z,59.70
2018-07-23T17:41:10.891Z,59.60
2018-07-23T17:43:38.075Z,59.80
2018-07-23T17:46:05.240Z,59.60
2018-07-23T17:48:32.449Z,59.60
2018-07-23T17:50:59.807Z,59.70
2018-07-23T17:53:26.993Z,59.70
2018-07-23T17:55:54.311Z,59.70
2018-07-23T17:58:21.480Z,59.50
2018-07-23T18:00:48.697Z,59.40
2018-07-23T18:03:15.989Z,59.40
2018-07-23T18:05:43.237Z,59.30
2018-07-23T18:08:10.427Z,59.30
2018-07-23T18:10:37.607Z,59.30
2018-07-23T18:13:04.845Z,59.30
2018-07-23T18:15:32.020Z,59.20
2018-07-23T18:17:59.187Z,59.20
2018-07-23T18:20:26.455Z,59.20
2018-07-23T18:22:53.591Z,59.10
2018-07-23T18:25:20.836Z,59.10
2018-07-23T18:27:48.017Z,59.10
2018-07-23T18:30:15.227Z,58.90
2018-07-23T18:32:42.420Z,58.90
2018-07-23T18:35:09.733Z,59.00
2018-07-23T18:37:36.915Z,59.00
2018-07-23T18:40:04.121Z,59.00
2018-07-23T18:42:31.389Z,59.00
2018-07-23T18:44:58.526Z,59.10
2018-07-23T18:47:25.773Z,59.10
2018-07-23T18:49:55.075Z,59.80
2018-07-23T18:52:22.971Z,59.30
2018-07-23T18:54:51.466Z,59.40
2018-07-23T18:57:18.683Z,59.50
2018-07-23T18:59:45.981Z,59.60
2018-07-23T19:02:14.451Z,59.70
2018-07-23T19:04:41.661Z,59.70
2018-07-23T19:07:09.059Z,59.80
2018-07-23T19:09:36.347Z,59.90
2018-07-23T19:12:03.604Z,60.00
2018-07-23T19:14:30.892Z,60.00
2018-07-23T19:16:58.938Z,60.10
2018-07-23T19:19:26.220Z,60.20
2018-07-23T19:21:53.395Z,60.20
2018-07-23T19:24:20.647Z,60.10
2018-07-23T19:26:47.963Z,60.10
2018-07-23T19:29:15.152Z,60.10
2018-07-23T19:31:42.368Z,60.00
2018-07-23T19:34:09.579Z,60.20
2018-07-23T19:36:36.797Z,60.40
2018-07-23T19:39:07.084Z,60.80
2018-07-23T19:41:34.356Z,60.90
2018-07-23T19:44:01.617Z,60.90
2018-07-23T19:46:28.821Z,61.00
2018-07-23T19:48:55.982Z,61.10
2018-07-23T19:51:23.252Z,61.10
2018-07-23T19:53:50.494Z,61.90
2018-07-23T19:56:17.764Z,61.20
2018-07-23T19:58:45.028Z,61.30
2018-07-23T20:01:12.239Z,61.40
2018-07-23T20:03:39.972Z,61.50
2018-07-23T20:06:07.315Z,61.60
2018-07-23T20:08:34.511Z,61.70
2018-07-23T20:11:01.680Z,61.80
2018-07-23T20:13:28.876Z,61.80
2018-07-23T20:15:56.629Z,61.80
2018-07-23T20:18:23.839Z,61.70
2018-07-23T20:20:51.055Z,61.90
2018-07-23T20:23:18.250Z,62.20
2018-07-23T20:25:45.492Z,62.30
2018-07-23T20:28:12.748Z,62.20
2018-07-23T20:30:39.985Z,62.30
2018-07-23T20:33:07.158Z,62.30
2018-07-23T20:35:34.359Z,62.70
2018-07-23T20:38:01.592Z,62.50
2018-07-23T20:40:28.751Z,62.30
2018-07-23T20:42:56.835Z,62.40
2018-07-23T20:45:24.040Z,62.50
2018-07-23T20:47:51.315Z,62.20
2018-07-23T20:50:18.579Z,62.10
2018-07-23T20:52:45.765Z,62.30
2018-07-23T20:55:13.151Z,62.70
2018-07-23T20:57:40.356Z,62.90
2018-07-23T21:00:07.732Z,63.10
2018-07-23T21:02:34.937Z,62.90
2018-07-23T21:05:02.182Z,63.00
2018-07-23T21:07:29.564Z,63.00
2018-07-23T21:09:56.851Z,63.60
2018-07-23T21:12:24.152Z,62.70
2018-07-23T21:14:51.384Z,62.90
2018-07-23T21:17:18.589Z,62.80
2018-07-23T21:19:45.882Z,62.80
2018-07-23T21:22:13.123Z,62.60
2018-07-23T21:24:40.307Z,62.70
2018-07-23T21:27:07.635Z,62.80
2018-07-23T21:29:34.862Z,62.80
2018-07-23T21:32:02.119Z,62.70
2018-07-23T21:34:29.296Z,62.60
2018-07-23T21:36:56.503Z,62.70
2018-07-23T21:39:23.761Z,62.80
2018-07-23T21:41:50.964Z,62.70
2018-07-23T21:44:18.237Z,62.60
2018-07-23T21:46:45.479Z,62.90
2018-07-23T21:49:12.724Z,63.10
2018-07-23T21:51:40.008Z,63.00
2018-07-23T21:54:13.916Z,62.90
2018-07-23T21:56:41.034Z,62.90
2018-07-23T21:59:08.243Z,63.00
2018-07-23T22:01:35.447Z,62.80
2018-07-23T22:04:02.784Z,62.60
2018-07-23T22:06:29.972Z,62.60
2018-07-23T22:08:57.142Z,62.80
2018-07-23T22:11:24.475Z,62.80
2018-07-23T22:13:51.596Z,62.80
2018-07-23T22:16:18.826Z,62.70
2018-07-23T22:18:46.109Z,62.40
2018-07-23T22:21:13.326Z,62.40
2018-07-23T22:23:40.580Z,62.40
2018-07-23T22:26:07.847Z,62.30
2018-07-23T22:28:35.019Z,62.20
2018-07-23T22:31:02.272Z,62.00
2018-07-23T22:33:29.852Z,62.10
2018-07-23T22:35:57.096Z,62.10
2018-07-23T22:38:24.284Z,62.40
2018-07-23T22:40:51.540Z,62.30
2018-07-23T22:43:19.042Z,62.50
2018-07-23T22:45:46.257Z,62.80
2018-07-23T22:48:13.431Z,62.90
2018-07-23T22:50:40.640Z,63.20
2018-07-23T22:53:07.887Z,63.20
2018-07-23T22:55:35.291Z,63.00
2018-07-23T22:58:02.492Z,62.90
2018-07-23T23:00:29.716Z,63.00
2018-07-23T23:02:56.953Z,62.90
2018-07-23T23:05:24.204Z,62.70
2018-07-23T23:07:51.340Z,62.70
2018-07-23T23:10:18.552Z,62.80
2018-07-23T23:12:45.787Z,62.80
2018-07-23T23:15:13.024Z,62.70
2018-07-23T23:17:40.276Z,62.80
2018-07-23T23:20:07.771Z,62.80
2018-07-23T23:22:34.944Z,63.00
2018-07-23T23:25:02.224Z,62.80
2018-07-23T23:27:29.422Z,62.70
2018-07-23T23:29:56.807Z,62.70
2018-07-23T23:32:23.999Z,62.80
2018-07-23T23:34:51.199Z,62.50
2018-07-23T23:37:18.444Z,62.50
2018-07-23T23:39:45.707Z,62.40
2018-07-23T23:42:12.906Z,62.50
2018-07-23T23:44:40.107Z,62.50
2018-07-23T23:47:07.321Z,62.20
2018-07-23T23:49:34.541Z,62.20
2018-07-23T23:52:01.887Z,62.10
2018-07-23T23:56:56.287Z,61.80
2018-07-23T23:59:23.481Z,62.00
